X  Sluiten METAR luchtvaart weer gegevens      EHGG Eelde Airport
Temperatuur
20°C Temperatuur
11°C Dauwpunt
56% Vochtigheid



Wind
9 MPH
14 KM/U
4 M/S
8 KTS



290°
WNW
Huidig weer

Veel verspreide wolken Veel verspreide wolken
Luchtdruk 1015.92 (hPa) - 30 (inHg)
Zicht 6 (mijl) - 9.7 (km)
Vliegveld
Vliegveld code EHGG

Locatie : Eelde Airport
Afstand: 32 (mi)

Metar:
EHGG 221025Z AUTO 29008KT 270V340 9999 SCT034/// BKN039/// 20/11 Q1016 NOSIG

Tijd: 22-07-2024 12:25 CEST